Time;durP1;ratioP1;P1;durP2;ratioP2;P2;SDS_P1;SDS_P2;PMS_P1;PMS_P2;Temp;Humidity;BMP_temperature;BMP_pressure;BME280_temperature;BME280_humidity;BME280_pressure;Samples;Min_cycle;Max_cycle;Signal;HPM_P1;HPM_P2
2023/06/22 00:00:44;;;;;;;32.25;14.05;;;;;;;21.33;93.55;99088.00;4945617;29;20043;-93
2023/06/22 00:03:10;;;;;;;29.75;14.15;;;;;;;21.28;94.33;99084.75;4944209;28;20088;-91
2023/06/22 00:05:36;;;;;;;32.75;14.90;;;;;;;21.33;95.44;99101.53;4948666;29;20561;-92
2023/06/22 00:08:04;;;;;;;29.13;14.15;;;;;;;21.24;95.46;99083.19;4944360;29;20139;-92
2023/06/22 00:10:30;;;;;;;;;;;;;;;21.34;95.34;99114.09;4946485;29;20043;-93
2023/06/22 00:12:57;;;;;;;31.52;14.43;;;;;;;21.14;96.32;99080.22;4955378;28;20005;-92
2023/06/22 00:15:23;;;;;;;28.67;14.63;;;;;;;21.22;97.24;99098.66;4948827;29;20039;-92
2023/06/22 00:17:49;;;;;;;30.65;14.90;;;;;;;21.23;97.00;99094.97;4944173;28;20094;-92
2023/06/22 00:20:16;;;;;;;27.75;14.05;;;;;;;21.03;99.44;99078.22;4945870;29;20051;-92
2023/06/22 00:22:42;;;;;;;24.35;13.57;;;;;;;20.97;99.30;99078.63;4944622;29;20075;-91
2023/06/22 00:25:09;;;;;;;29.90;14.40;;;;;;;21.10;99.55;99103.00;4945922;29;20114;-93
2023/06/22 00:27:35;;;;;;;25.83;13.55;;;;;;;20.93;99.23;99085.22;4947361;29;20051;-91
2023/06/22 00:30:03;;;;;;;29.35;14.20;;;;;;;20.96;98.88;99093.09;4945664;29;20051;-90
2023/06/22 00:32:29;;;;;;;27.50;13.88;;;;;;;21.01;99.61;99101.78;4945337;29;20043;-92
2023/06/22 00:34:55;;;;;;;26.48;13.73;;;;;;;20.84;100.00;99083.06;4946332;29;20036;-92
2023/06/22 00:37:25;;;;;;;23.88;13.07;;;;;;;20.86;100.00;99092.84;4946036;29;20110;-92
2023/06/22 00:39:51;;;;;;;23.27;13.63;;;;;;;20.68;100.00;99067.84;4947775;29;20058;-92
2023/06/22 00:42:17;;;;;;;25.55;13.75;;;;;;;20.72;100.00;99077.50;4947598;29;20036;-92
2023/06/22 00:44:44;;;;;;;21.20;12.02;;;;;;;20.81;100.00;99102.22;4945934;29;20378;-91
2023/06/22 00:47:13;;;;;;;26.50;12.68;;;;;;;20.76;100.00;99099.81;4945019;29;20047;-92
2023/06/22 00:49:39;;;;;;;;;;;;;;;20.75;100.00;99106.16;4947165;29;20542;-93
2023/06/22 00:52:08;;;;;;;20.38;11.32;;;;;;;20.59;100.00;99079.25;4954730;28;19968;-92
2023/06/22 00:54:35;;;;;;;21.83;11.70;;;;;;;20.48;100.00;99060.13;4944654;28;20070;-90
2023/06/22 00:57:02;;;;;;;21.77;12.38;;;;;;;20.63;100.00;99097.00;4942390;29;20046;-92
2023/06/22 00:59:28;;;;;;;18.23;10.93;;;;;;;20.42;100.00;99066.75;4943760;29;20036;-92
2023/06/22 01:01:54;;;;;;;26.13;11.25;;;;;;;20.46;100.00;99084.53;4944257;29;20048;-94
2023/06/22 01:04:24;;;;;;;21.58;11.00;;;;;;;20.38;100.00;99067.06;4946568;29;20039;-92
2023/06/22 01:06:59;;;;;;;21.08;12.27;;;;;;;20.40;100.00;99073.22;4953206;29;20067;-91
2023/06/22 01:09:31;;;;;;;19.45;11.02;;;;;;;20.45;100.00;99082.78;4941247;29;20040;-92
2023/06/22 01:12:01;;;;;;;21.27;11.38;;;;;;;20.37;100.00;99062.63;4944215;29;20048;-91
2023/06/22 01:14:33;;;;;;;22.67;10.95;;;;;;;20.36;100.00;99077.09;4948068;29;20068;-91
2023/06/22 01:17:01;;;;;;;22.23;11.40;;;;;;;20.34;100.00;99073.59;4949865;29;20039;-89
2023/06/22 01:19:38;;;;;;;17.02;10.10;;;;;;;20.34;100.00;99087.97;4945382;29;20075;-91
2023/06/22 01:22:08;;;;;;;18.30;10.43;;;;;;;20.26;100.00;99074.09;4943353;29;20058;-92
2023/06/22 01:24:44;;;;;;;17.52;10.60;;;;;;;20.24;100.00;99073.31;4943750;29;20035;-93
2023/06/22 01:27:31;;;;;;;15.00;10.02;;;;;;;20.16;100.00;99062.13;4945871;29;20107;-92
2023/06/22 01:30:01;;;;;;;16.42;9.70;;;;;;;20.14;100.00;99069.44;4942630;29;20036;-92
2023/06/22 01:32:30;;;;;;;15.10;9.63;;;;;;;20.23;100.00;99085.06;4942849;29;20043;-93
2023/06/22 01:34:57;;;;;;;16.17;9.48;;;;;;;20.20;100.00;99087.97;4950608;29;20087;-91
2023/06/22 01:37:23;;;;;;;13.23;9.20;;;;;;;20.13;100.00;99073.13;4944709;28;20102;-92
2023/06/22 01:39:50;;;;;;;11.80;8.50;;;;;;;20.01;100.00;99067.50;4946329;29;20043;-92
2023/06/22 01:42:16;;;;;;;14.80;9.65;;;;;;;19.97;100.00;99083.97;4944671;29;20050;-92
2023/06/22 01:44:43;;;;;;;14.18;9.60;;;;;;;19.98;100.00;99088.44;4943950;29;20547;-93
2023/06/22 01:47:13;;;;;;;15.43;9.13;;;;;;;19.97;100.00;99082.13;4941401;29;20135;-91
2023/06/22 01:49:40;;;;;;;14.50;8.90;;;;;;;20.01;100.00;99083.69;4942413;29;20039;-91
2023/06/22 01:52:06;;;;;;;13.27;9.20;;;;;;;19.97;100.00;99081.28;4955460;28;20498;-92
2023/06/22 01:54:32;;;;;;;10.75;7.80;;;;;;;19.86;100.00;99066.63;4940951;29;20040;-92
2023/06/22 01:56:59;;;;;;;11.38;7.93;;;;;;;19.87;100.00;99084.53;4941634;29;20138;-92
2023/06/22 01:59:28;;;;;;;12.35;8.73;;;;;;;19.79;100.00;99075.16;4944130;29;20403;-93
2023/06/22 02:02:01;;;;;;;13.85;8.18;;;;;;;19.70;100.00;99068.50;4944817;29;20047;-92
2023/06/22 02:04:35;;;;;;;14.10;8.43;;;;;;;19.79;100.00;99077.88;4943444;29;20039;-91
2023/06/22 02:07:05;;;;;;;13.00;8.60;;;;;;;19.74;100.00;99074.59;4954689;29;20035;-91
2023/06/22 02:09:33;;;;;;;12.00;8.07;;;;;;;19.81;100.00;99071.41;4951948;29;20084;-93
2023/06/22 02:12:02;;;;;;;13.80;8.52;;;;;;;19.78;100.00;99077.00;4946460;28;20094;-92
2023/06/22 02:14:28;;;;;;;10.18;7.68;;;;;;;19.77;100.00;99071.69;4956422;28;20103;-91
2023/06/22 02:16:55;;;;;;;11.23;8.15;;;;;;;19.72;100.00;99069.28;4950164;29;20039;-92
2023/06/22 02:19:23;;;;;;;11.20;7.05;;;;;;;19.69;100.00;99077.50;4945256;29;20378;-93
2023/06/22 02:21:50;;;;;;;13.98;7.78;;;;;;;19.67;100.00;99068.66;4944575;29;20057;-92
2023/06/22 02:24:16;;;;;;;12.40;7.97;;;;;;;19.63;100.00;99053.59;4943397;29;20127;-92
2023/06/22 02:26:44;;;;;;;14.07;7.93;;;;;;;19.65;100.00;99073.28;4942387;29;20139;-91
2023/06/22 02:29:10;;;;;;;12.75;8.98;;;;;;;19.55;100.00;99056.75;4944133;29;20521;-92
2023/06/22 02:31:36;;;;;;;12.10;8.10;;;;;;;19.47;100.00;99049.13;4944219;29;20051;-92
2023/06/22 02:34:01;;;;;;;13.07;7.95;;;;;;;19.58;100.00;99072.75;4943444;29;20095;-92
2023/06/22 02:36:30;;;;;;;12.20;7.63;;;;;;;19.55;100.00;99070.22;4941001;29;20071;-93
2023/06/22 02:39:00;;;;;;;13.57;8.07;;;;;;;19.60;100.00;99083.44;4944309;29;20047;-92
2023/06/22 02:41:26;;;;;;;14.18;8.27;;;;;;;19.51;100.00;99068.66;4945757;29;20406;-92
2023/06/22 02:43:52;;;;;;;13.82;8.32;;;;;;;19.33;100.00;99040.09;4947556;29;20094;-91
2023/06/22 02:46:18;;;;;;;12.02;7.57;;;;;;;19.54;100.00;99081.09;4947625;29;20070;-91
2023/06/22 02:48:44;;;;;;;10.18;7.65;;;;;;;19.35;100.00;99057.06;4944513;29;20490;-92
2023/06/22 02:51:10;;;;;;;13.05;8.10;;;;;;;19.40;100.00;99069.31;4947600;29;20082;-91
2023/06/22 02:53:36;;;;;;;12.98;7.68;;;;;;;19.29;100.00;99066.38;4947327;29;20075;-91
2023/06/22 02:56:06;;;;;;;11.02;7.72;;;;;;;19.11;100.00;99043.19;4948716;29;20190;-93
2023/06/22 02:58:38;;;;;;;15.30;8.10;;;;;;;19.27;100.00;99065.59;4945173;29;20102;-91
2023/06/22 03:01:04;;;;;;;14.48;8.73;;;;;;;19.23;100.00;99064.03;4947189;29;20050;-90
2023/06/22 03:03:30;;;;;;;12.18;7.95;;;;;;;19.34;100.00;99083.13;4947273;29;20043;-93
2023/06/22 03:05:56;;;;;;;15.75;9.00;;;;;;;19.26;100.00;99071.94;4945553;29;20055;-94
2023/06/22 03:08:22;;;;;;;11.40;7.28;;;;;;;19.19;100.00;99071.44;4946997;29;20452;-93
2023/06/22 03:10:47;;;;;;;12.48;7.97;;;;;;;19.23;100.00;99075.66;4950887;29;20520;-91
2023/06/22 03:13:15;;;;;;;16.27;8.57;;;;;;;19.20;100.00;99064.22;4946426;29;20047;-95
2023/06/22 03:15:41;;;;;;;12.07;8.05;;;;;;;19.20;100.00;99069.59;4943070;29;20047;-91
2023/06/22 03:18:07;;;;;;;14.50;8.55;;;;;;;19.30;100.00;99068.13;4945646;29;20047;-92
2023/06/22 03:20:33;;;;;;;12.88;8.60;;;;;;;19.22;100.00;99081.16;4947428;29;20055;-92
2023/06/22 03:22:59;;;;;;;12.57;8.35;;;;;;;19.09;100.00;99071.09;4943845;29;20055;-91
2023/06/22 03:25:25;;;;;;;15.25;8.55;;;;;;;19.19;100.00;99074.13;4947827;29;20081;-93
2023/06/22 03:27:51;;;;;;;12.55;8.15;;;;;;;19.05;100.00;99058.72;4944224;29;20071;-91
2023/06/22 03:30:18;;;;;;;12.70;8.68;;;;;;;19.21;100.00;99082.13;4942018;28;20060;-92
2023/06/22 03:32:44;;;;;;;13.43;9.07;;;;;;;19.18;100.00;99068.81;4948540;29;20082;-93
2023/06/22 03:35:13;;;;;;;13.50;9.23;;;;;;;19.24;100.00;99073.88;4949134;29;20054;-91
2023/06/22 03:37:38;;;;;;;14.48;8.95;;;;;;;19.31;100.00;99082.47;4954022;28;20048;-92
2023/06/22 03:40:06;;;;;;;12.48;8.57;;;;;;;19.27;100.00;99073.69;4954865;29;20107;-91
2023/06/22 03:42:33;;;;;;;16.30;8.60;;;;;;;19.27;100.00;99079.06;4947769;29;20517;-91
2023/06/22 03:45:00;;;;;;;13.10;8.45;;;;;;;19.29;100.00;99086.09;4955374;29;20047;-91
2023/06/22 03:47:28;;;;;;;14.90;9.15;;;;;;;19.25;100.00;99073.75;4945247;29;20134;-90
2023/06/22 03:49:54;;;;;;;14.98;8.73;;;;;;;19.26;100.00;99072.81;4945733;29;20390;-91
2023/06/22 03:52:20;;;;;;;12.60;8.50;;;;;;;19.31;100.00;99083.31;4944949;29;20136;-91
2023/06/22 03:54:46;;;;;;;13.60;8.38;;;;;;;19.41;100.00;99089.03;4950519;29;20082;-93
2023/06/22 03:57:12;;;;;;;12.73;8.10;;;;;;;19.27;100.00;99065.59;4964904;28;20092;-92
2023/06/22 03:59:38;;;;;;;11.63;8.27;;;;;;;19.43;100.00;99093.41;4941380;29;20126;-92
2023/06/22 04:02:04;;;;;;;13.40;8.40;;;;;;;19.35;100.00;99078.63;4956782;28;20040;-93
2023/06/22 04:04:31;;;;;;;13.63;8.35;;;;;;;19.35;100.00;99067.84;4951384;29;20482;-92
2023/06/22 04:06:57;;;;;;;19.08;8.15;;;;;;;19.46;100.00;99073.47;4943300;29;20493;-91
2023/06/22 04:09:23;;;;;;;12.98;8.68;;;;;;;19.53;100.00;99077.53;4950570;29;20058;-91
2023/06/22 04:11:49;;;;;;;13.60;9.15;;;;;;;19.60;100.00;99087.00;4946700;29;20051;-91
2023/06/22 04:14:15;;;;;;;14.32;9.05;;;;;;;19.71;100.00;99094.50;4945671;28;20566;-92
2023/06/22 04:16:41;;;;;;;12.60;8.52;;;;;;;19.64;100.00;99071.50;4945759;29;20047;-92
2023/06/22 04:19:07;;;;;;;13.05;8.90;;;;;;;19.79;100.00;99077.88;4959335;28;20042;-92
2023/06/22 04:21:34;;;;;;;14.25;9.77;;;;;;;19.81;100.00;99075.94;4943837;29;20138;-91
2023/06/22 04:24:00;;;;;;;16.25;9.65;;;;;;;19.95;100.00;99083.19;4946737;29;20051;-90
2023/06/22 04:26:26;;;;;;;14.57;9.40;;;;;;;20.07;100.00;99090.56;4945372;29;20048;-95
2023/06/22 04:28:55;;;;;;;15.48;9.38;;;;;;;20.16;100.00;99092.69;4943028;29;20564;-94
2023/06/22 04:31:21;;;;;;;16.13;9.50;;;;;;;20.17;100.00;99089.03;4944834;28;20047;-94
2023/06/22 04:33:47;;;;;;;15.48;10.07;;;;;;;20.09;100.00;99062.50;4943414;29;20058;-90
2023/06/22 04:36:14;;;;;;;15.48;9.52;;;;;;;20.26;100.00;99068.69;4946602;29;20043;-92
2023/06/22 04:38:42;;;;;;;17.63;10.02;;;;;;;20.38;100.00;99067.91;4951573;29;20051;-92
2023/06/22 04:41:14;;;;;;;19.63;9.70;;;;;;;20.56;100.00;99086.63;4945123;28;20043;-93
2023/06/22 04:43:39;;;;;;;15.15;9.60;;;;;;;20.55;100.00;99066.84;4942759;29;20046;-92
2023/06/22 04:46:05;;;;;;;16.92;10.15;;;;;;;20.75;100.00;99089.06;4946844;28;20043;-93
2023/06/22 04:48:32;;;;;;;17.17;10.30;;;;;;;20.74;100.00;99057.63;4946325;29;20039;-92
2023/06/22 04:51:02;;;;;;;16.95;9.75;;;;;;;20.99;100.00;99068.59;4962901;28;20044;-94
2023/06/22 04:53:29;;;;;;;18.30;10.40;;;;;;;21.23;100.00;99085.03;4946456;28;20047;-93
2023/06/22 04:55:57;;;;;;;17.15;10.10;;;;;;;21.44;100.00;99085.47;4953956;29;20036;-94
2023/06/22 04:58:22;;;;;;;18.88;10.75;;;;;;;21.61;100.00;99083.50;4948476;29;20043;-91
2023/06/22 05:00:51;;;;;;;14.85;9.82;;;;;;;21.83;100.00;99078.34;4943029;29;20035;-95
2023/06/22 05:03:18;;;;;;;16.08;9.77;;;;;;;21.97;100.00;99073.81;4943594;29;20040;-92
2023/06/22 05:05:44;;;;;;;19.60;10.80;;;;;;;22.20;100.00;99080.34;4946601;28;20047;-91
2023/06/22 05:08:10;;;;;;;20.55;11.05;;;;;;;22.35;100.00;99091.00;4945264;28;20039;-94
2023/06/22 05:10:36;;;;;;;18.10;11.05;;;;;;;22.45;100.00;99080.38;4944935;29;20047;-92
2023/06/22 05:13:03;;;;;;;18.13;10.80;;;;;;;22.64;100.00;99088.06;4943352;29;20107;-93
2023/06/22 05:15:30;;;;;;;20.00;10.45;;;;;;;22.84;100.00;99108.31;4945480;29;20050;-93
2023/06/22 05:17:56;;;;;;;18.15;11.07;;;;;;;22.95;100.00;99093.97;4942717;29;20042;-94
2023/06/22 05:20:22;;;;;;;17.48;11.55;;;;;;;23.11;100.00;99088.31;4943391;29;20115;-94
2023/06/22 05:22:48;;;;;;;19.95;10.88;;;;;;;22.89;100.00;99080.88;4943786;29;20094;-93
2023/06/22 05:25:13;;;;;;;17.08;10.75;;;;;;;22.93;100.00;99095.94;4946029;29;20493;-94
2023/06/22 05:27:39;;;;;;;18.42;10.77;;;;;;;23.14;100.00;99115.25;4942327;29;20039;-94
2023/06/22 05:30:08;;;;;;;19.58;10.90;;;;;;;23.33;100.00;99099.34;4941264;29;20395;-93
2023/06/22 05:32:34;;;;;;;17.42;10.82;;;;;;;23.41;100.00;99109.59;4942674;29;20050;-92
2023/06/22 05:35:00;;;;;;;22.27;11.15;;;;;;;23.48;100.00;99100.00;4956699;29;20112;-92
2023/06/22 05:37:28;;;;;;;19.13;11.88;;;;;;;23.26;100.00;99102.59;4944052;29;20031;-92
2023/06/22 05:39:55;;;;;;;22.53;11.80;;;;;;;23.32;100.00;99104.88;4944989;28;20047;-93
2023/06/22 05:42:21;;;;;;;18.95;12.45;;;;;;;23.47;100.00;99106.44;4946069;29;20502;-94
2023/06/22 05:44:47;;;;;;;21.20;12.68;;;;;;;23.45;100.00;99102.97;4941720;29;20062;-92
2023/06/22 05:47:14;;;;;;;19.23;11.88;;;;;;;23.49;100.00;99099.06;4959425;28;20485;-92
2023/06/22 05:49:40;;;;;;;22.08;12.02;;;;;;;23.80;100.00;99115.75;4948732;29;20075;-92
2023/06/22 05:52:07;;;;;;;23.13;12.32;;;;;;;24.13;100.00;99116.88;4942529;28;20073;-90
2023/06/22 05:54:33;;;;;;;24.00;12.15;;;;;;;24.32;97.92;99117.16;4952487;29;20044;-91
2023/06/22 05:56:58;;;;;;;20.83;11.55;;;;;;;24.30;99.80;99127.28;4949499;28;20079;-91
2023/06/22 05:59:24;;;;;;;21.45;12.23;;;;;;;24.25;99.69;99109.63;4942430;29;20074;-92
2023/06/22 06:01:50;;;;;;;19.17;12.50;;;;;;;24.36;99.76;99115.94;4947921;29;20039;-91
2023/06/22 06:04:18;;;;;;;21.88;12.27;;;;;;;24.45;96.10;99119.78;4946795;28;20046;-92
2023/06/22 06:06:44;;;;;;;21.25;12.15;;;;;;;24.05;98.99;99116.59;4945103;29;20050;-91
2023/06/22 06:09:11;;;;;;;19.60;12.00;;;;;;;23.84;99.56;99105.53;4946982;29;20047;-91
2023/06/22 06:11:37;;;;;;;20.60;12.25;;;;;;;23.76;100.00;99117.84;4948357;29;20493;-91
2023/06/22 06:14:03;;;;;;;27.58;12.80;;;;;;;23.50;100.00;99116.19;4945305;28;20043;-91
2023/06/22 06:16:29;;;;;;;26.77;13.45;;;;;;;23.78;99.23;99098.72;4949488;28;20046;-94
2023/06/22 06:18:55;;;;;;;24.38;12.60;;;;;;;24.01;98.73;99121.41;4950704;29;20027;-94
2023/06/22 06:21:23;;;;;;;26.35;12.60;;;;;;;24.05;98.66;99108.44;4948087;29;20043;-94
2023/06/22 06:23:49;;;;;;;24.70;12.75;;;;;;;23.96;98.38;99107.28;4954585;29;20048;-93
2023/06/22 06:26:16;;;;;;;24.73;13.45;;;;;;;23.44;100.00;99101.22;4950963;28;20094;-93
2023/06/22 06:28:42;;;;;;;27.27;14.40;;;;;;;23.81;98.86;99111.19;4952782;28;20046;-93
2023/06/22 06:31:08;;;;;;;28.15;14.55;;;;;;;23.62;100.00;99122.56;4950610;29;20046;-93
2023/06/22 06:33:34;;;;;;;25.30;13.55;;;;;;;24.12;100.00;99123.28;4954360;29;20102;-94
2023/06/22 06:36:03;;;;;;;27.80;12.77;;;;;;;24.17;100.00;99113.78;4948066;28;20039;-94
2023/06/22 06:38:30;;;;;;;26.88;13.13;;;;;;;24.79;97.32;99103.53;4947823;29;20042;-92
2023/06/22 06:40:56;;;;;;;24.00;12.68;;;;;;;25.28;93.32;99115.03;4949825;28;20051;-92
2023/06/22 06:43:23;;;;;;;25.65;13.25;;;;;;;25.57;90.00;99124.38;4947226;29;20502;-93
2023/06/22 06:45:49;;;;;;;25.70;13.65;;;;;;;25.62;88.88;99100.31;4954460;29;20094;-91
2023/06/22 06:48:15;;;;;;;28.58;12.93;;;;;;;26.00;87.90;99114.44;4943958;28;20039;-94
2023/06/22 06:50:40;;;;;;;28.65;13.52;;;;;;;26.21;86.53;99111.75;4947290;29;20094;-92
2023/06/22 06:53:06;;;;;;;27.73;14.73;;;;;;;26.22;84.94;99118.94;4946778;28;20047;-93
2023/06/22 06:55:34;;;;;;;24.50;13.48;;;;;;;25.67;88.07;99099.06;4948940;29;20047;-92
2023/06/22 06:57:59;;;;;;;24.85;13.18;;;;;;;25.83;87.98;99096.78;4954318;29;20039;-93
2023/06/22 07:00:25;;;;;;;24.45;12.88;;;;;;;26.10;85.29;99107.22;4946001;29;20040;-93
2023/06/22 07:02:51;;;;;;;25.40;13.85;;;;;;;26.23;84.99;99096.97;4949348;28;21685;-92
2023/06/22 07:05:17;;;;;;;26.98;14.80;;;;;;;26.02;85.76;99123.34;4957518;28;20391;-93
2023/06/22 07:07:43;;;;;;;24.10;13.70;;;;;;;25.69;88.97;99095.22;4956360;29;20039;-92
2023/06/22 07:10:09;;;;;;;29.23;14.50;;;;;;;26.21;84.99;99112.59;4944059;29;20055;-93
2023/06/22 07:12:37;;;;;;;28.65;14.32;;;;;;;25.82;86.25;99116.84;4946258;29;20062;-92
2023/06/22 07:15:04;;;;;;;30.02;15.18;;;;;;;25.66;88.18;99094.63;4942592;29;20494;-92
2023/06/22 07:17:30;;;;;;;35.15;14.65;;;;;;;26.23;86.01;99110.59;4945662;29;20054;-92
2023/06/22 07:19:56;;;;;;;32.75;14.52;;;;;;;26.63;83.07;99106.28;4944515;29;20047;-93
2023/06/22 07:22:22;;;;;;;25.10;14.40;;;;;;;27.00;80.67;99103.00;4953593;28;20047;-91
2023/06/22 07:24:49;;;;;;;26.70;15.05;;;;;;;27.32;78.62;99104.72;4943322;29;20059;-94
2023/06/22 07:27:18;;;;;;;26.45;15.00;;;;;;;27.46;76.10;99093.41;4943104;28;20040;-92
2023/06/22 07:29:45;;;;;;;27.17;14.60;;;;;;;27.42;76.39;99090.09;4944458;29;20513;-91
2023/06/22 07:32:11;;;;;;;31.30;15.37;;;;;;;27.58;75.92;99091.41;4944826;28;20879;-93
2023/06/22 07:34:37;;;;;;;39.85;17.40;;;;;;;26.97;77.34;99101.41;4928458;28;20043;-93
2023/06/22 07:37:04;;;;;;;28.45;15.27;;;;;;;26.62;81.36;99090.94;4945233;28;20051;-92
2023/06/22 07:39:30;;;;;;;30.30;15.32;;;;;;;27.15;81.12;99095.28;4949966;28;20497;-91
2023/06/22 07:41:56;;;;;;;34.30;16.23;;;;;;;27.45;77.50;99098.00;4939250;28;20059;-92
2023/06/22 07:44:22;;;;;;;34.58;15.10;;;;;;;27.89;75.58;99105.84;4943415;28;20040;-92
2023/06/22 07:46:49;;;;;;;28.25;15.98;;;;;;;28.02;74.93;99106.41;4942834;28;21429;-92
2023/06/22 07:49:16;;;;;;;35.38;15.68;;;;;;;27.54;77.74;99081.75;4943539;29;20401;-92
2023/06/22 07:51:42;;;;;;;31.48;15.70;;;;;;;27.90;77.35;99090.31;4944068;29;20052;-92
2023/06/22 07:54:09;;;;;;;35.65;16.50;;;;;;;28.10;76.41;99093.88;4946187;29;20050;-93
2023/06/22 07:56:36;;;;;;;28.75;16.13;;;;;;;28.02;75.98;99091.88;4938870;28;20035;-91
2023/06/22 07:59:03;;;;;;;31.85;16.00;;;;;;;27.99;76.21;99076.63;4952143;28;20050;-92
2023/06/22 08:01:29;;;;;;;31.13;15.75;;;;;;;28.36;73.62;99084.03;4943442;28;20047;-92
2023/06/22 08:03:56;;;;;;;32.90;15.18;;;;;;;28.67;73.20;99087.47;4945060;29;20040;-92
2023/06/22 08:06:22;;;;;;;30.88;15.55;;;;;;;29.03;71.88;99097.69;4947525;29;20046;-93
2023/06/22 08:08:48;;;;;;;34.65;16.10;;;;;;;29.12;71.79;99082.25;4947137;29;20039;-91
2023/06/22 08:11:14;;;;;;;32.67;16.40;;;;;;;29.37;67.69;99094.38;4947707;28;20138;-94
2023/06/22 08:13:40;;;;;;;30.30;16.00;;;;;;;29.39;57.63;99075.91;4946854;29;20043;-93
2023/06/22 08:16:07;;;;;;;32.83;16.25;;;;;;;29.37;57.54;99080.66;4949831;28;20040;-91
2023/06/22 08:18:33;;;;;;;40.88;15.68;;;;;;;29.28;59.49;99094.28;4948182;29;20048;-92
2023/06/22 08:21:00;;;;;;;30.48;14.98;;;;;;;28.82;61.69;99086.97;4942086;29;20070;-89
2023/06/22 08:23:26;;;;;;;34.58;14.52;;;;;;;29.23;60.16;99080.19;4944667;29;20114;-91
2023/06/22 08:25:52;;;;;;;28.40;15.40;;;;;;;29.29;58.57;99079.53;4949187;28;20039;-92
2023/06/22 08:28:18;;;;;;;31.92;15.07;;;;;;;29.40;58.20;99074.88;4949497;29;20046;-93
2023/06/22 08:30:43;;;;;;;31.15;15.57;;;;;;;29.51;58.80;99084.75;4944658;29;20077;-92
2023/06/22 08:33:09;;;;;;;44.45;22.05;;;;;;;29.55;58.00;99092.50;4944262;29;20049;-91
2023/06/22 08:35:35;;;;;;;31.88;16.90;;;;;;;29.67;59.23;99083.03;4946767;29;20035;-92
2023/06/22 08:38:02;;;;;;;35.80;15.50;;;;;;;29.77;58.15;99061.06;4947635;29;20075;-93
2023/06/22 08:40:34;;;;;;;30.33;16.02;;;;;;;30.04;56.70;99068.34;4951105;29;20446;-93
2023/06/22 08:43:10;;;;;;;36.78;15.43;;;;;;;30.21;55.62;99065.69;4949624;28;20043;-93
2023/06/22 08:45:36;;;;;;;31.58;15.50;;;;;;;30.47;55.49;99072.13;4946199;29;20516;-94
2023/06/22 08:48:05;;;;;;;35.25;16.15;;;;;;;30.54;53.93;99091.53;4951489;29;20071;-94
2023/06/22 08:50:35;;;;;;;28.70;15.57;;;;;;;30.53;51.08;99080.72;4949397;28;20121;-93
2023/06/22 08:53:03;;;;;;;34.47;16.05;;;;;;;29.92;51.03;99079.72;4952695;29;20523;-93
2023/06/22 08:55:29;;;;;;;36.88;15.55;;;;;;;30.04;51.29;99078.44;4956496;29;20048;-92
2023/06/22 08:57:54;;;;;;;28.95;13.88;;;;;;;30.32;51.16;99060.00;4943595;29;20048;-93
2023/06/22 09:00:21;;;;;;;34.58;16.77;;;;;;;30.28;51.48;99075.94;4943192;28;20103;-94
2023/06/22 09:02:47;;;;;;;32.08;14.50;;;;;;;30.06;50.60;99081.91;4946483;29;20036;-94
2023/06/22 09:05:13;;;;;;;29.38;14.13;;;;;;;29.72;51.96;99077.13;4943660;29;20105;-93
2023/06/22 09:07:40;;;;;;;36.53;14.82;;;;;;;29.32;52.48;99066.56;4953359;28;20051;-92
2023/06/22 09:10:08;;;;;;;35.17;14.88;;;;;;;29.75;51.26;99073.22;4949815;29;20051;-93
2023/06/22 09:12:34;;;;;;;39.05;16.25;;;;;;;30.10;50.04;99070.44;4944732;29;20047;-94
2023/06/22 09:15:00;;;;;;;31.00;13.85;;;;;;;30.30;49.79;99062.06;4945612;29;20541;-93
2023/06/22 09:17:26;;;;;;;35.03;15.00;;;;;;;30.59;48.60;99056.22;4944610;29;20074;-93
2023/06/22 09:19:52;;;;;;;32.83;13.63;;;;;;;30.63;48.09;99040.31;4944966;28;20042;-93
2023/06/22 09:22:18;;;;;;;40.10;15.60;;;;;;;30.78;47.33;99052.38;4945128;29;20059;-91
2023/06/22 09:24:44;;;;;;;33.17;14.07;;;;;;;30.82;45.71;99062.03;4944729;29;20446;-93
2023/06/22 09:27:11;;;;;;;32.85;13.75;;;;;;;31.14;46.23;99054.97;4945011;28;20055;-94
2023/06/22 09:29:37;;;;;;;36.17;14.90;;;;;;;31.30;46.65;99044.03;4949909;28;20132;-93
2023/06/22 09:32:03;;;;;;;31.45;13.20;;;;;;;31.66;45.30;99048.41;4953923;28;20086;-92
2023/06/22 09:34:31;;;;;;;33.13;13.20;;;;;;;31.74;45.08;99045.69;4945241;29;20063;-93
2023/06/22 09:36:57;;;;;;;34.20;13.03;;;;;;;31.90;44.39;99050.31;4951646;29;20063;-92
2023/06/22 09:39:23;;;;;;;30.77;13.68;;;;;;;31.88;44.35;99049.63;4948588;28;20043;-91
2023/06/22 09:41:49;;;;;;;32.85;13.20;;;;;;;31.76;44.51;99031.78;4946516;29;20035;-95
2023/06/22 09:44:16;;;;;;;28.38;12.43;;;;;;;32.03;44.09;99045.22;4953768;29;20444;-92
2023/06/22 09:46:42;;;;;;;26.90;13.48;;;;;;;32.04;43.38;99030.44;4943585;29;20050;-91
2023/06/22 09:49:08;;;;;;;24.90;12.80;;;;;;;31.48;43.44;99021.09;4941158;29;20055;-92
2023/06/22 09:51:33;;;;;;;28.23;13.82;;;;;;;31.59;44.36;99041.88;4944319;29;20152;-91
2023/06/22 09:53:59;;;;;;;35.20;12.43;;;;;;;31.86;45.62;99038.81;4944223;29;20041;-92
2023/06/22 09:56:28;;;;;;;29.75;12.63;;;;;;;31.95;43.68;99019.59;4940562;29;20040;-92
2023/06/22 09:58:54;;;;;;;31.30;13.23;;;;;;;32.19;43.77;99029.75;4944904;29;20472;-93
2023/06/22 10:01:21;;;;;;;29.90;13.52;;;;;;;32.40;42.56;99035.56;4954761;29;20063;-92
2023/06/22 10:03:47;;;;;;;28.42;12.90;;;;;;;32.32;41.75;99019.91;4952215;29;20046;-92
2023/06/22 10:06:13;;;;;;;38.70;13.45;;;;;;;32.54;42.66;99034.00;4945326;28;20131;-93
2023/06/22 10:08:40;;;;;;;30.75;13.15;;;;;;;32.33;42.31;99012.50;4947124;29;20498;-91
2023/06/22 10:11:06;;;;;;;28.90;12.53;;;;;;;32.48;41.95;99009.88;4946844;29;20401;-93
2023/06/22 10:13:32;;;;;;;28.33;13.68;;;;;;;32.77;42.55;99028.59;4947550;29;20042;-92
2023/06/22 10:15:58;;;;;;;26.35;13.10;;;;;;;32.89;41.65;99016.13;4941837;29;20051;-92
2023/06/22 10:18:25;;;;;;;27.10;12.07;;;;;;;32.72;42.17;99014.47;4942433;29;20050;-94
2023/06/22 10:20:52;;;;;;;31.30;12.17;;;;;;;32.92;39.30;99029.56;4946927;29;20075;-91
2023/06/22 10:23:17;;;;;;;26.45;11.50;;;;;;;32.88;38.50;99017.19;4943504;28;20051;-93
2023/06/22 10:25:43;;;;;;;28.20;11.85;;;;;;;32.83;41.99;99003.06;4949517;28;20054;-89
2023/06/22 10:28:09;;;;;;;26.48;11.13;;;;;;;33.01;39.58;99030.38;4943961;29;20820;-95
2023/06/22 10:30:35;;;;;;;23.05;11.23;;;;;;;32.82;38.83;99003.28;4942587;29;20050;-94
2023/06/22 10:33:01;;;;;;;22.17;11.82;;;;;;;32.88;39.37;99003.41;4942473;28;20389;-93
2023/06/22 10:35:28;;;;;;;26.15;10.77;;;;;;;32.97;38.14;99020.75;4943823;29;20044;-95
2023/06/22 10:37:56;;;;;;;23.13;11.00;;;;;;;32.51;39.85;99007.66;4944535;29;20095;-95
2023/06/22 10:40:21;;;;;;;27.27;10.60;;;;;;;32.82;40.34;99008.78;4962745;28;20036;-93
2023/06/22 10:42:47;;;;;;;23.15;10.40;;;;;;;32.95;38.93;99001.66;4948322;28;20669;-94
2023/06/22 10:45:13;;;;;;;31.90;11.65;;;;;;;33.18;40.36;99000.84;4949360;29;20043;-94
2023/06/22 10:47:41;;;;;;;23.38;9.20;;;;;;;33.21;35.60;98997.75;4946047;29;20050;-93
2023/06/22 10:50:08;;;;;;;19.65;8.48;;;;;;;33.43;35.33;98997.97;4948058;29;20067;-94
2023/06/22 10:52:35;;;;;;;22.13;9.73;;;;;;;32.93;35.35;98983.59;4941443;29;20104;-93
2023/06/22 10:55:01;;;;;;;19.42;9.60;;;;;;;33.28;36.07;98981.34;4942629;29;20082;-94
2023/06/22 10:57:27;;;;;;;18.48;9.57;;;;;;;33.30;36.07;98976.50;4947026;29;20130;-94
2023/06/22 10:59:53;;;;;;;18.85;9.40;;;;;;;33.24;35.56;98994.63;4952713;29;20110;-92
2023/06/22 11:02:19;;;;;;;19.45;8.63;;;;;;;33.43;35.21;98970.41;4943148;29;20187;-94
2023/06/22 11:04:45;;;;;;;19.48;10.13;;;;;;;33.74;36.94;98987.75;4947718;29;20063;-93
2023/06/22 11:07:11;;;;;;;17.98;9.18;;;;;;;33.84;36.94;98978.38;4944819;29;20040;-94
2023/06/22 11:09:39;;;;;;;18.08;8.30;;;;;;;33.96;34.06;98986.03;4945525;29;20036;-95
2023/06/22 11:12:06;;;;;;;19.00;8.07;;;;;;;34.03;33.43;98993.53;4959278;28;20039;-93
2023/06/22 11:14:33;;;;;;;19.20;7.83;;;;;;;34.17;34.57;98995.50;4948120;29;20039;-96